Time;durP1;ratioP1;P1;durP2;ratioP2;P2;SDS_P1;SDS_P2;PMS_P1;PMS_P2;Temp;Humidity;BMP_temperature;BMP_pressure;BME280_temperature;BME280_humidity;BME280_pressure;Samples;Min_cycle;Max_cycle;Signal;HPM_P1;HPM_P2
2021/12/19 00:01:27;;;;;;;13.02;7.25;;;6.60;99.90;;;;;;5034706;28;20382;-89
2021/12/19 00:09:05;;;;;;;13.88;6.78;;;6.60;99.90;;;;;;5072865;28;20101;-91
2021/12/19 00:11:31;;;;;;;12.82;6.72;;;6.60;99.90;;;;;;5078597;28;20024;-90
2021/12/19 00:13:57;;;;;;;12.52;7.47;;;6.60;99.90;;;;;;5041858;28;20485;-90
2021/12/19 00:16:23;;;;;;;11.23;6.53;;;6.60;99.90;;;;;;5073996;28;20036;-89
2021/12/19 00:18:50;;;;;;;17.13;6.75;;;7.10;99.90;;;;;;5024360;28;20036;-90
2021/12/19 00:21:17;;;;;;;10.80;6.65;;;6.60;99.90;;;;;;5069742;28;20063;-90
2021/12/19 00:23:45;;;;;;;13.23;5.57;;;7.20;99.90;;;;;;5045154;28;20111;-90
2021/12/19 00:26:12;;;;;;;12.48;6.57;;;7.00;99.90;;;;;;5062760;28;20085;-90
2021/12/19 00:28:38;;;;;;;12.48;6.60;;;6.60;99.90;;;;;;5079992;28;20126;-90
2021/12/19 00:31:05;;;;;;;12.07;6.03;;;6.90;99.90;;;;;;5071964;28;20111;-89
2021/12/19 00:33:31;;;;;;;10.57;5.75;;;6.30;99.90;;;;;;5073027;28;20031;-90
2021/12/19 00:35:57;;;;;;;9.73;6.05;;;7.20;99.90;;;;;;5072272;28;20027;-90
2021/12/19 00:38:23;;;;;;;13.80;6.60;;;7.00;99.90;;;;;;5077851;28;20035;-89
2021/12/19 00:40:49;;;;;;;11.50;5.90;;;6.60;99.90;;;;;;5077008;28;20092;-89
2021/12/19 00:43:24;;;;;;;11.27;5.82;;;6.60;99.90;;;;;;5079481;28;20047;-90
2021/12/19 00:45:53;;;;;;;12.77;5.60;;;6.60;99.90;;;;;;5099301;28;20023;-89
2021/12/19 00:48:18;;;;;;;7.43;5.13;;;7.30;99.90;;;;;;5100705;28;20040;-90
2021/12/19 00:50:45;;;;;;;8.90;5.22;;;6.70;99.90;;;;;;5083434;28;20035;-90
2021/12/19 00:53:11;;;;;;;14.65;5.40;;;6.60;99.90;;;;;;5076168;28;20043;-91
2021/12/19 00:55:37;;;;;;;9.25;5.90;;;6.70;99.90;;;;;;5045176;28;20044;-90
2021/12/19 00:58:04;;;;;;;9.98;4.97;;;6.70;99.90;;;;;;5059274;28;20040;-90
2021/12/19 01:00:33;;;;;;;10.50;5.60;;;6.80;99.90;;;;;;5046763;28;20136;-89
2021/12/19 01:03:00;;;;;;;11.73;5.43;;;6.60;99.90;;;;;;5057615;28;20126;-90
2021/12/19 01:05:33;;;;;;;10.70;5.63;;;7.20;99.90;;;;;;5051384;28;20107;-90
2021/12/19 01:07:59;;;;;;;16.88;5.95;;;7.10;99.90;;;;;;5067576;28;20074;-90
2021/12/19 01:10:25;;;;;;;11.63;6.25;;;6.70;99.90;;;;;;5041216;28;20102;-91
2021/12/19 01:12:51;;;;;;;10.70;6.10;;;6.70;99.90;;;;;;5055796;28;20089;-90
2021/12/19 01:15:18;;;;;;;14.60;6.40;;;6.70;99.90;;;;;;5040587;28;20037;-90
2021/12/19 01:17:44;;;;;;;13.30;6.82;;;6.70;99.90;;;;;;5045993;28;20476;-90
2021/12/19 01:20:14;;;;;;;14.93;6.93;;;6.70;99.90;;;;;;5072062;28;20043;-89
2021/12/19 01:22:40;;;;;;;17.63;8.18;;;6.70;99.90;;;;;;5074606;28;20760;-89
2021/12/19 01:25:06;;;;;;;12.00;6.22;;;6.70;99.90;;;;;;5062694;28;20028;-89
2021/12/19 01:27:32;;;;;;;14.02;7.15;;;6.70;99.90;;;;;;5060954;28;20118;-90
2021/12/19 01:29:58;;;;;;;13.23;6.85;;;7.60;99.90;;;;;;5042147;28;20032;-90
2021/12/19 01:32:23;;;;;;;11.10;6.80;;;6.70;99.90;;;;;;5062671;28;20054;-90
2021/12/19 01:34:49;;;;;;;13.68;7.28;;;6.70;99.90;;;;;;5048512;28;20809;-90
2021/12/19 01:37:15;;;;;;;15.07;6.55;;;6.80;99.90;;;;;;5055597;28;20084;-90
2021/12/19 01:39:41;;;;;;;14.85;7.18;;;6.80;99.90;;;;;;5060651;28;20036;-90
2021/12/19 01:42:10;;;;;;;15.07;7.63;;;6.80;99.90;;;;;;5057956;28;20028;-89
2021/12/19 01:44:36;;;;;;;14.68;7.47;;;6.80;99.90;;;;;;5058064;28;20485;-90
2021/12/19 01:47:03;;;;;;;12.98;6.95;;;6.70;99.90;;;;;;5074864;28;20046;-90
2021/12/19 01:49:29;;;;;;;13.27;6.63;;;6.80;99.90;;;;;;5046309;28;20035;-90
2021/12/19 01:51:55;;;;;;;16.92;7.78;;;6.80;99.90;;;;;;5057717;28;20036;-90
2021/12/19 01:54:21;;;;;;;13.25;7.40;;;7.00;99.90;;;;;;5037714;28;20040;-91
2021/12/19 01:56:47;;;;;;;14.13;7.22;;;6.80;99.90;;;;;;5065031;28;20051;-90
2021/12/19 01:59:12;;;;;;;16.20;7.63;;;7.20;99.90;;;;;;5069022;28;20032;-90
2021/12/19 02:01:48;;;;;;;10.50;6.07;;;6.90;99.90;;;;;;5043301;28;20111;-90
2021/12/19 02:04:15;;;;;;;10.18;5.30;;;6.80;99.90;;;;;;5068663;28;20044;-90
2021/12/19 02:06:41;;;;;;;8.38;4.10;;;6.80;99.90;;;;;;5057610;28;20537;-90
2021/12/19 02:09:08;;;;;;;9.68;4.28;;;6.80;99.90;;;;;;5063804;28;20035;-90
2021/12/19 02:11:39;;;;;;;6.97;3.88;;;6.80;99.90;;;;;;5053510;28;20044;-90
2021/12/19 02:14:06;;;;;;;9.25;4.43;;;7.10;99.90;;;;;;5070082;28;20039;-89
2021/12/19 02:16:32;;;;;;;8.63;4.45;;;6.80;99.90;;;;;;5048060;28;20101;-90
2021/12/19 02:18:59;;;;;;;8.80;4.97;;;6.80;99.90;;;;;;5066363;28;21543;-90
2021/12/19 02:21:25;;;;;;;12.38;4.70;;;6.80;99.90;;;;;;5055618;28;20054;-90
2021/12/19 02:23:51;;;;;;;11.52;5.55;;;6.80;99.90;;;;;;5089830;28;20480;-90
2021/12/19 02:26:17;;;;;;;7.55;4.85;;;7.20;99.90;;;;;;5067321;28;20042;-90
2021/12/19 02:28:43;;;;;;;7.50;4.30;;;6.90;99.90;;;;;;5076143;28;20036;-90
2021/12/19 02:31:09;;;;;;;5.63;2.88;;;7.80;99.90;;;;;;5044947;28;20093;-90
2021/12/19 02:33:40;;;;;;;4.22;2.22;;;6.70;99.90;;;;;;5044709;28;20097;-90
2021/12/19 02:36:23;;;;;;;4.65;2.42;;;7.30;99.90;;;;;;5068558;28;20386;-90
2021/12/19 02:48:10;;;;;;;5.75;2.55;;;6.70;99.90;;;;;;5079031;28;20063;-90
2021/12/19 02:50:08;;;;;;;4.57;2.63;;;6.60;99.90;;;;;;5082188;28;20040;-89
2021/12/19 02:52:34;;;;;;;5.03;2.28;;;6.60;99.90;;;;;;5046215;28;20063;-90
2021/12/19 02:55:00;;;;;;;6.10;2.42;;;6.60;99.90;;;;;;5088105;28;20087;-90
2021/12/19 02:57:26;;;;;;;3.60;2.13;;;6.70;99.90;;;;;;5059235;28;20037;-90
2021/12/19 02:59:51;;;;;;;3.47;2.03;;;6.60;99.90;;;;;;5086957;28;20047;-90
2021/12/19 03:02:18;;;;;;;4.35;2.00;;;6.60;99.90;;;;;;5077917;28;20719;-90
2021/12/19 03:04:58;;;;;;;4.50;2.70;;;6.50;99.90;;;;;;5045199;28;20064;-90
2021/12/19 03:07:25;;;;;;;3.00;1.95;;;6.50;99.90;;;;;;5078261;28;20046;-90
2021/12/19 03:20:21;;;;;;;2.58;2.00;;;6.50;99.90;;;;;;5054242;28;20042;-91
2021/12/19 03:22:47;;;;;;;3.40;1.88;;;6.80;99.90;;;;;;5053200;28;20036;-90
2021/12/19 03:25:13;;;;;;;2.85;2.10;;;6.50;99.90;;;;;;5047559;28;20056;-90
2021/12/19 03:27:38;;;;;;;3.15;2.17;;;6.50;99.90;;;;;;5056130;28;20032;-89
2021/12/19 03:30:06;;;;;;;3.08;1.92;;;6.50;99.90;;;;;;5048163;28;20032;-90
2021/12/19 03:32:32;;;;;;;5.85;2.00;;;6.50;99.90;;;;;;5051767;28;20044;-90
2021/12/19 03:34:57;;;;;;;2.67;1.80;;;6.70;99.90;;;;;;5046887;28;21879;-90
2021/12/19 03:37:24;;;;;;;3.90;1.90;;;7.00;99.90;;;;;;5072877;28;20036;-90
2021/12/19 03:40:24;;;;;;;3.60;1.85;;;6.50;99.90;;;;;;5053386;28;20036;-90
2021/12/19 03:42:48;;;;;;;3.88;1.95;;;6.50;99.90;;;;;;5082290;28;20101;-89
2021/12/19 03:45:17;;;;;;;3.08;2.08;;;6.50;99.90;;;;;;5081833;28;20036;-90
2021/12/19 03:47:43;;;;;;;8.00;2.20;;;6.50;99.90;;;;;;5055838;28;20048;-90
2021/12/19 03:50:12;;;;;;;6.25;2.03;;;7.20;99.90;;;;;;5021862;28;20086;-90
2021/12/19 03:52:38;;;;;;;2.80;2.30;;;6.50;99.90;;;;;;5057334;28;20107;-90
2021/12/19 03:55:05;;;;;;;3.40;2.30;;;6.50;99.90;;;;;;5069439;28;20503;-90
2021/12/19 03:57:31;;;;;;;6.22;2.20;;;6.50;99.90;;;;;;5044801;28;20048;-90
2021/12/19 03:59:57;;;;;;;4.03;2.45;;;6.50;99.90;;;;;;5053133;28;20032;-91
2021/12/19 04:02:27;;;;;;;4.70;2.63;;;6.50;99.90;;;;;;5066694;28;20485;-90
2021/12/19 04:04:55;;;;;;;4.85;2.53;;;6.80;99.90;;;;;;5053989;28;20060;-90
2021/12/19 04:07:21;;;;;;;4.32;2.30;;;6.90;99.90;;;;;;5061285;28;20493;-90
2021/12/19 04:09:48;;;;;;;5.18;2.58;;;6.50;99.90;;;;;;5069972;28;20028;-90
2021/12/19 04:12:14;;;;;;;3.42;2.35;;;7.30;99.90;;;;;;5050479;28;20040;-91
2021/12/19 04:14:40;;;;;;;6.13;2.60;;;6.50;99.90;;;;;;5057513;28;20037;-90
2021/12/19 04:17:05;;;;;;;7.38;2.40;;;6.70;99.90;;;;;;5085058;28;20066;-90
2021/12/19 04:19:31;;;;;;;5.97;2.50;;;6.40;99.90;;;;;;5055136;28;21877;-90
2021/12/19 04:21:58;;;;;;;2.28;1.70;;;6.40;99.90;;;;;;5022281;28;20530;-90
2021/12/19 04:24:24;;;;;;;4.18;1.85;;;6.80;99.90;;;;;;5047320;28;20123;-90
2021/12/19 04:26:49;;;;;;;3.33;1.63;;;6.40;99.90;;;;;;5054452;28;20133;-90
2021/12/19 04:29:15;;;;;;;1.67;1.27;;;6.40;99.90;;;;;;5044674;28;20087;-91
2021/12/19 04:31:41;;;;;;;1.75;1.33;;;6.40;99.90;;;;;;5051767;28;20048;-90
2021/12/19 04:34:07;;;;;;;1.17;1.02;;;6.30;99.90;;;;;;5051865;28;20044;-90
2021/12/19 04:36:38;;;;;;;1.08;0.85;;;6.30;99.90;;;;;;5062353;28;20027;-90
2021/12/19 04:58:18;;;;;;;1.42;0.77;;;6.50;99.90;;;;;;5073906;28;20043;-90
2021/12/19 05:00:37;;;;;;;1.50;1.05;;;6.10;99.90;;;;;;5069829;28;20604;-91
2021/12/19 05:03:13;;;;;;;1.27;0.85;;;6.10;99.90;;;;;;5078689;28;20042;-90
2021/12/19 05:05:53;;;;;;;6.22;1.67;;;6.90;99.90;;;;;;5063263;28;20118;-90
2021/12/19 05:16:32;;;;;;;3.17;1.23;;;6.10;99.90;;;;;;5054856;28;20076;-90
2021/12/19 05:19:05;;;;;;;1.65;1.20;;;6.80;99.90;;;;;;5066507;28;20047;-90
2021/12/19 05:21:30;;;;;;;1.80;1.25;;;6.10;99.90;;;;;;5041704;28;20593;-90
2021/12/19 05:26:22;;;;;;;3.50;1.50;;;6.00;99.90;;;;;;5055963;28;20083;-89
2021/12/19 05:28:48;;;;;;;3.63;1.70;;;6.20;99.90;;;;;;5064187;28;20535;-90
2021/12/19 05:31:16;;;;;;;6.75;1.85;;;6.10;99.90;;;;;;5052076;28;20037;-90
2021/12/19 05:33:42;;;;;;;6.78;2.83;;;6.10;99.90;;;;;;5039653;28;20042;-90
2021/12/19 05:44:10;;;;;;;6.45;2.78;;;6.40;99.90;;;;;;5058105;28;20052;-89
2021/12/19 05:47:06;;;;;;;12.43;3.78;;;6.90;99.90;;;;;;5059772;28;20413;-90
2021/12/19 05:49:32;;;;;;;9.88;3.35;;;6.20;99.90;;;;;;5056685;28;20044;-90
2021/12/19 05:51:58;;;;;;;14.02;3.90;;;6.20;99.90;;;;;;5068178;28;20040;-89
2021/12/19 05:54:24;;;;;;;7.60;3.95;;;6.20;99.90;;;;;;5087941;28;20076;-90
2021/12/19 05:56:51;;;;;;;7.80;3.65;;;6.30;99.90;;;;;;5055527;28;20036;-89
2021/12/19 05:59:17;;;;;;;11.15;4.00;;;6.20;99.90;;;;;;5042308;28;20119;-88
2021/12/19 06:01:43;;;;;;;12.13;3.65;;;6.80;99.90;;;;;;5054600;28;20533;-88
2021/12/19 06:04:10;;;;;;;9.35;4.18;;;6.20;99.90;;;;;;5056062;28;20040;-87
2021/12/19 06:06:35;;;;;;;9.07;4.50;;;6.80;99.90;;;;;;5080155;28;20036;-88
2021/12/19 06:09:02;;;;;;;13.48;4.63;;;6.20;99.90;;;;;;5059179;28;20056;-87
2021/12/19 06:11:28;;;;;;;11.70;4.72;;;6.20;99.90;;;;;;5090803;28;20081;-88
2021/12/19 06:13:53;;;;;;;12.18;5.00;;;6.60;99.90;;;;;;5070137;28;20028;-88
2021/12/19 06:16:19;;;;;;;15.88;5.18;;;6.70;99.90;;;;;;5056729;28;20645;-88
2021/12/19 06:18:47;;;;;;;16.52;5.68;;;6.60;99.90;;;;;;5055863;28;20034;-87
2021/12/19 06:21:12;;;;;;;14.57;5.47;;;6.20;99.90;;;;;;5069498;28;20512;-88
2021/12/19 06:23:39;;;;;;;13.68;5.60;;;6.30;99.90;;;;;;5060700;28;20052;-88
2021/12/19 06:26:10;;;;;;;13.82;5.43;;;7.00;99.90;;;;;;5070050;28;20090;-87
2021/12/19 06:28:36;;;;;;;17.98;6.22;;;6.30;99.90;;;;;;5071615;28;20067;-88
2021/12/19 06:31:02;;;;;;;16.58;6.50;;;6.40;99.90;;;;;;5057497;28;20036;-87
2021/12/19 06:33:28;;;;;;;19.13;7.10;;;7.00;99.90;;;;;;5041029;28;20037;-88
2021/12/19 06:35:53;;;;;;;19.75;7.30;;;6.40;99.90;;;;;;5083071;28;20042;-88
2021/12/19 06:38:19;;;;;;;20.15;7.40;;;6.30;99.90;;;;;;5071457;28;20447;-88
2021/12/19 06:40:45;;;;;;;15.23;7.30;;;6.30;99.90;;;;;;5048001;28;20529;-88
2021/12/19 06:43:10;;;;;;;20.58;7.18;;;6.30;99.90;;;;;;5039560;28;20037;-88
2021/12/19 06:45:36;;;;;;;18.42;6.88;;;7.00;99.90;;;;;;5058486;28;20032;-88
2021/12/19 06:48:02;;;;;;;13.65;6.75;;;6.40;99.90;;;;;;5056129;28;20041;-88
2021/12/19 06:50:28;;;;;;;19.77;6.78;;;6.30;99.90;;;;;;5080270;28;20037;-87
2021/12/19 06:52:55;;;;;;;14.73;6.72;;;6.30;99.90;;;;;;5055050;28;20040;-88
2021/12/19 06:55:20;;;;;;;13.35;6.55;;;6.40;99.90;;;;;;5080502;28;20063;-88
2021/12/19 06:57:46;;;;;;;16.70;6.93;;;6.40;99.90;;;;;;5069131;28;20032;-88
2021/12/19 07:00:18;;;;;;;13.82;6.65;;;6.40;99.90;;;;;;5072300;28;20036;-87
2021/12/19 07:02:44;;;;;;;18.38;8.02;;;6.40;99.90;;;;;;5085827;28;20032;-87
2021/12/19 07:05:10;;;;;;;26.02;9.10;;;6.40;99.90;;;;;;5048929;28;20090;-88
2021/12/19 07:07:36;;;;;;;21.00;7.75;;;6.70;99.90;;;;;;5058831;28;20051;-88
2021/12/19 07:10:03;;;;;;;20.20;8.43;;;6.40;99.90;;;;;;5040357;28;20040;-88
2021/12/19 07:12:29;;;;;;;21.52;8.20;;;6.40;99.90;;;;;;5075233;28;20068;-88
2021/12/19 07:14:56;;;;;;;27.92;7.82;;;6.40;99.90;;;;;;5062963;28;20119;-88
2021/12/19 07:17:23;;;;;;;18.88;6.80;;;6.50;99.90;;;;;;5070449;28;20093;-88
2021/12/19 07:19:49;;;;;;;12.32;6.38;;;6.40;99.90;;;;;;5077320;28;20655;-88
2021/12/19 07:22:15;;;;;;;19.65;6.63;;;6.50;99.90;;;;;;5059537;28;20072;-88
2021/12/19 07:24:41;;;;;;;21.33;6.85;;;6.60;99.90;;;;;;5062451;28;20051;-88
2021/12/19 07:27:06;;;;;;;14.38;6.20;;;6.40;99.90;;;;;;5075258;28;20052;-88
2021/12/19 07:29:32;;;;;;;18.02;6.38;;;6.40;99.90;;;;;;5042808;28;20040;-88
2021/12/19 07:31:58;;;;;;;21.88;6.93;;;7.20;99.90;;;;;;5055428;28;20039;-87
2021/12/19 07:34:31;;;;;;;23.38;8.00;;;6.40;99.90;;;;;;5069065;28;20039;-87
2021/12/19 07:36:57;;;;;;;19.30;6.63;;;6.40;99.90;;;;;;5062701;28;20071;-88
2021/12/19 07:39:40;;;;;;;19.30;7.50;;;6.40;99.90;;;;;;5075461;28;20428;-89
2021/12/19 07:42:09;;;;;;;17.05;7.30;;;6.40;99.90;;;;;;5058111;28;20032;-88
2021/12/19 07:44:35;;;;;;;17.92;6.95;;;6.40;99.90;;;;;;5068799;28;20031;-88
2021/12/19 07:47:02;;;;;;;15.27;6.85;;;6.40;99.90;;;;;;5067359;28;20036;-89
2021/12/19 07:49:28;;;;;;;13.43;5.10;;;6.40;99.90;;;;;;5055210;28;20040;-89
2021/12/19 07:51:54;;;;;;;13.10;5.32;;;6.40;99.90;;;;;;5068361;28;20032;-88
2021/12/19 07:54:20;;;;;;;16.55;5.30;;;6.50;99.90;;;;;;5058141;28;20052;-88
2021/12/19 07:56:46;;;;;;;14.52;4.88;;;6.40;99.90;;;;;;5074271;28;20046;-88
2021/12/19 07:59:13;;;;;;;14.73;5.65;;;6.40;99.90;;;;;;5056314;28;20084;-88
2021/12/19 08:01:38;;;;;;;14.38;5.10;;;6.50;99.90;;;;;;5050690;28;20074;-88
2021/12/19 08:04:04;;;;;;;10.55;4.60;;;6.40;99.90;;;;;;5053316;28;20613;-89
2021/12/19 08:06:30;;;;;;;11.93;4.50;;;7.40;99.90;;;;;;5046851;28;20036;-88
2021/12/19 08:08:57;;;;;;;17.15;4.70;;;6.40;99.90;;;;;;5070343;28;20044;-88
2021/12/19 08:11:40;;;;;;;11.85;3.60;;;6.40;99.90;;;;;;5052657;28;20393;-89
2021/12/19 08:14:07;;;;;;;15.82;4.68;;;6.40;99.90;;;;;;5063152;28;20039;-88
2021/12/19 08:16:33;;;;;;;13.15;4.28;;;6.40;99.90;;;;;;5042227;28;20035;-87
2021/12/19 08:18:59;;;;;;;13.00;5.07;;;6.40;99.90;;;;;;5058394;28;20030;-85
2021/12/19 08:21:25;;;;;;;8.25;4.25;;;6.40;99.90;;;;;;5069823;28;20549;-86
2021/12/19 08:23:50;;;;;;;12.02;4.72;;;6.40;99.90;;;;;;5048010;28;20040;-86
2021/12/19 08:26:16;;;;;;;12.00;4.90;;;6.80;99.90;;;;;;5033370;28;20048;-87
2021/12/19 08:28:42;;;;;;;15.80;5.00;;;6.50;99.90;;;;;;5075057;28;20053;-87
2021/12/19 08:31:08;;;;;;;16.55;4.53;;;6.50;99.90;;;;;;5080763;28;20055;-87
2021/12/19 08:33:34;;;;;;;10.65;5.18;;;6.50;99.90;;;;;;5071720;28;20092;-87
2021/12/19 08:36:01;;;;;;;17.02;4.13;;;6.40;99.90;;;;;;5069451;28;20556;-85
2021/12/19 08:38:35;;;;;;;15.20;4.43;;;6.90;99.90;;;;;;5043045;28;20070;-88
2021/12/19 08:41:01;;;;;;;15.57;4.65;;;6.50;99.90;;;;;;5032342;28;20032;-87
2021/12/19 08:43:27;;;;;;;11.02;4.43;;;6.60;99.90;;;;;;5022774;28;20578;-87
2021/12/19 08:45:52;;;;;;;13.35;4.70;;;6.50;99.90;;;;;;5050330;28;20063;-86
2021/12/19 08:48:18;;;;;;;12.52;4.60;;;6.50;99.90;;;;;;5063349;28;20465;-86
2021/12/19 08:50:45;;;;;;;7.50;3.90;;;6.50;99.90;;;;;;5050262;28;20575;-88
2021/12/19 08:53:11;;;;;;;13.50;4.07;;;6.50;99.90;;;;;;5048866;28;20039;-86
2021/12/19 08:55:37;;;;;;;17.00;4.30;;;6.80;99.90;;;;;;5065588;28;20070;-87
2021/12/19 08:58:03;;;;;;;13.55;4.32;;;6.50;99.90;;;;;;5031008;28;20044;-86
2021/12/19 09:00:30;;;;;;;19.33;4.47;;;6.50;99.90;;;;;;5063639;28;20039;-87
2021/12/19 09:02:57;;;;;;;11.73;3.83;;;6.50;99.90;;;;;;5037669;28;20031;-87
2021/12/19 09:05:26;;;;;;;15.20;4.40;;;6.50;99.90;;;;;;5045364;28;20047;-88
2021/12/19 09:07:52;;;;;;;14.55;4.63;;;7.00;99.90;;;;;;5052786;28;20043;-87
2021/12/19 09:10:19;;;;;;;15.00;4.32;;;6.60;99.90;;;;;;5070406;28;20104;-87
2021/12/19 09:12:45;;;;;;;11.48;4.47;;;6.80;99.90;;;;;;5075734;28;20075;-87
2021/12/19 09:15:11;;;;;;;19.90;4.53;;;6.60;99.90;;;;;;5044442;28;20055;-86
2021/12/19 09:17:36;;;;;;;11.07;4.15;;;6.60;99.90;;;;;;5068818;28;20028;-86
2021/12/19 09:20:04;;;;;;;14.18;4.13;;;6.60;99.90;;;;;;5054547;28;20107;-86
2021/12/19 09:22:30;;;;;;;11.27;4.65;;;6.60;99.90;;;;;;5070959;28;20570;-86
2021/12/19 09:24:56;;;;;;;11.52;4.10;;;7.00;99.90;;;;;;5088338;28;20035;-87
2021/12/19 09:27:21;;;;;;;15.05;4.78;;;6.60;99.90;;;;;;5055049;28;20378;-86
2021/12/19 09:29:47;;;;;;;17.83;4.32;;;6.60;99.90;;;;;;5066215;28;20032;-86
2021/12/19 09:32:13;;;;;;;17.58;4.65;;;6.70;99.90;;;;;;5041889;28;20496;-87
2021/12/19 09:34:38;;;;;;;13.80;5.22;;;6.70;99.90;;;;;;5057188;28;20036;-86
2021/12/19 09:37:04;;;;;;;12.68;4.65;;;6.80;99.90;;;;;;5060793;28;20533;-86
2021/12/19 09:39:31;;;;;;;10.30;4.40;;;6.70;99.90;;;;;;5069366;28;20043;-86
2021/12/19 09:42:02;;;;;;;14.52;4.47;;;7.80;99.90;;;;;;5084501;28;20097;-86
2021/12/19 09:44:28;;;;;;;13.05;4.38;;;6.70;99.90;;;;;;5086982;28;20070;-86
2021/12/19 09:46:55;;;;;;;13.57;4.10;;;7.00;99.90;;;;;;5066525;28;20500;-86
2021/12/19 09:49:21;;;;;;;7.75;3.78;;;7.10;99.90;;;;;;5088747;28;20036;-86
2021/12/19 09:51:49;;;;;;;11.73;4.22;;;6.70;99.90;;;;;;5072159;28;20036;-86
2021/12/19 09:54:15;;;;;;;11.27;3.88;;;6.70;99.90;;;;;;5051843;28;20128;-86
2021/12/19 09:56:42;;;;;;;11.50;4.22;;;6.70;99.90;;;;;;5058984;28;20047;-86
2021/12/19 09:59:15;;;;;;;17.05;4.53;;;6.70;99.90;;;;;;5092264;28;20051;-87
2021/12/19 10:01:42;;;;;;;12.45;3.92;;;7.10;99.90;;;;;;5071947;28;20036;-86
2021/12/19 10:04:27;;;;;;;13.27;4.32;;;6.80;99.90;;;;;;5082620;28;20044;-86
2021/12/19 10:07:14;;;;;;;12.68;3.97;;;6.80;99.90;;;;;;5069719;28;20035;-86
2021/12/19 10:10:02;;;;;;;14.98;5.43;;;6.80;99.90;;;;;;5068030;28;20039;-86
2021/12/19 10:12:49;;;;;;;12.18;4.57;;;6.80;99.90;;;;;;5079987;28;20476;-86
2021/12/19 10:15:25;;;;;;;9.63;4.25;;;6.80;99.90;;;;;;5061743;28;20088;-86
2021/12/19 10:18:12;;;;;;;13.77;4.25;;;7.10;99.90;;;;;;5092387;28;20078;-86
2021/12/19 10:20:59;;;;;;;12.90;5.25;;;6.80;99.90;;;;;;5055762;28;20118;-86
2021/12/19 10:23:28;;;;;;;14.07;3.50;;;6.90;99.90;;;;;;5069374;28;20040;-86
2021/12/19 10:25:55;;;;;;;19.45;4.70;;;6.80;99.90;;;;;;5071693;28;20044;-86
2021/12/19 10:28:21;;;;;;;15.18;4.05;;;6.90;99.90;;;;;;5084245;28;20488;-86
2021/12/19 10:30:49;;;;;;;14.68;3.85;;;6.90;99.90;;;;;;5070482;28;20043;-86
2021/12/19 10:33:25;;;;;;;13.98;4.03;;;7.40;99.90;;;;;;5061828;28;20040;-86
2021/12/19 10:36:00;;;;;;;12.23;4.13;;;6.90;99.90;;;;;;5085512;28;20043;-87
2021/12/19 10:38:27;;;;;;;17.50;4.40;;;6.90;99.90;;;;;;5083231;28;20078;-86
2021/12/19 10:40:55;;;;;;;14.80;3.90;;;7.30;99.90;;;;;;5071373;28;20047;-87
2021/12/19 10:43:24;;;;;;;14.50;3.67;;;7.10;99.90;;;;;;5081723;28;20046;-86
2021/12/19 10:45:52;;;;;;;13.23;4.00;;;6.90;99.90;;;;;;5040442;28;20089;-86
2021/12/19 10:48:20;;;;;;;12.18;3.63;;;7.00;99.90;;;;;;5075266;28;20047;-86
2021/12/19 10:50:56;;;;;;;13.38;4.10;;;6.90;99.90;;;;;;5060276;28;20170;-87
2021/12/19 10:53:46;;;;;;;11.57;4.32;;;6.90;99.90;;;;;;5091325;28;20046;-87
2021/12/19 10:56:18;;;;;;;11.50;4.05;;;6.90;99.90;;;;;;5075213;28;20298;-86
2021/12/19 10:58:54;;;;;;;13.98;4.22;;;6.90;99.90;;;;;;5078809;28;20078;-86
2021/12/19 11:01:29;;;;;;;13.05;4.15;;;7.00;99.90;;;;;;5061648;28;20035;-86
2021/12/19 11:04:07;;;;;;;12.57;3.65;;;6.90;99.90;;;;;;5082175;28;20039;-86
2021/12/19 11:06:41;;;;;;;10.75;3.35;;;7.00;99.90;;;;;;5078225;28;20036;-86
2021/12/19 11:09:16;;;;;;;8.68;3.13;;;7.00;99.90;;;;;;5078746;28;20079;-86
2021/12/19 11:11:48;;;;;;;13.18;3.25;;;7.20;99.90;;;;;;5061223;28;20069;-86
2021/12/19 11:14:23;;;;;;;6.18;3.05;;;7.10;99.90;;;;;;5070017;28;20054;-86
2021/12/19 11:16:52;;;;;;;10.48;2.85;;;7.10;99.90;;;;;;5071978;28;20093;-85
2021/12/19 11:19:18;;;;;;;12.93;3.13;;;7.60;99.90;;;;;;5063210;28;20040;-86
2021/12/19 11:21:44;;;;;;;14.57;3.17;;;7.10;99.90;;;;;;5072931;28;20415;-86
2021/12/19 11:24:13;;;;;;;7.35;2.53;;;7.10;99.90;;;;;;5078314;28;20044;-86
2021/12/19 11:26:41;;;;;;;9.10;2.97;;;7.10;99.90;;;;;;5078019;28;20062;-86
2021/12/19 11:29:08;;;;;;;14.43;3.28;;;7.10;99.90;;;;;;5094491;28;20031;-86
2021/12/19 11:31:37;;;;;;;14.77;3.45;;;7.30;99.90;;;;;;5067218;28;20116;-86
2021/12/19 11:34:23;;;;;;;10.55;3.25;;;7.10;99.90;;;;;;5063286;28;20059;-86
2021/12/19 11:36:57;;;;;;;13.57;3.00;;;7.20;99.90;;;;;;5075929;28;20117;-85
2021/12/19 11:39:48;;;;;;;8.63;2.75;;;7.50;99.90;;;;;;5068984;28;20063;-88
2021/12/19 11:42:32;;;;;;;12.65;3.40;;;7.20;99.90;;;;;;5088522;28;20039;-89
2021/12/19 11:47:45;;;;;;;13.13;3.38;;;7.30;99.90;;;;;;5070851;28;20359;-86
2021/12/19 11:50:22;;;;;;;9.52;2.70;;;7.20;99.90;;;;;;5076615;28;20457;-87
2021/12/19 11:52:57;;;;;;;8.77;2.58;;;7.20;99.90;;;;;;5090485;28;20133;-87
2021/12/19 11:55:36;;;;;;;12.60;3.30;;;7.20;99.90;;;;;;5064542;28;20050;-86
2021/12/19 11:58:08;;;;;;;10.90;2.67;;;7.20;99.90;;;;;;5064570;28;20098;-87
2021/12/19 12:00:39;;;;;;;12.52;2.80;;;7.20;99.90;;;;;;5065333;28;20036;-87
2021/12/19 12:03:13;;;;;;;10.88;3.30;;;7.20;99.90;;;;;;5072363;28;20040;-89
2021/12/19 12:06:12;;;;;;;15.52;3.53;;;7.20;99.90;;;;;;5063437;28;20067;-87
2021/12/19 12:08:38;;;;;;;13.52;2.85;;;7.30;99.90;;;;;;5072767;28;20044;-86
2021/12/19 12:11:04;;;;;;;10.13;2.58;;;7.20;99.90;;;;;;5063714;28;20028;-87
2021/12/19 12:13:33;;;;;;;15.50;4.10;;;7.20;99.90;;;;;;5084635;28;20044;-89
2021/12/19 12:16:29;;;;;;;11.30;3.00;;;7.20;99.90;;;;;;5077169;28;20047;-88
2021/12/19 12:19:01;;;;;;;11.65;2.72;;;7.30;99.90;;;;;;5081693;28;20438;-88
2021/12/19 12:24:02;;;;;;;10.55;3.40;;;7.20;99.90;;;;;;5075444;28;20126;-87
2021/12/19 12:26:32;;;;;;;11.27;2.80;;;7.40;99.90;;;;;;5066962;28;20071;-88
2021/12/19 12:28:58;;;;;;;11.25;3.17;;;7.30;99.90;;;;;;5066472;28;20097;-88
2021/12/19 12:31:24;;;;;;;11.50;2.97;;;7.20;99.90;;;;;;5050525;28;20036;-88
2021/12/19 12:33:51;;;;;;;12.43;3.00;;;7.30;99.90;;;;;;5077442;28;20425;-89
2021/12/19 12:36:17;;;;;;;20.52;3.15;;;7.30;99.90;;;;;;5047210;28;20040;-88
2021/12/19 12:38:46;;;;;;;15.07;3.67;;;7.50;99.90;;;;;;5073101;28;20032;-88
2021/12/19 12:41:27;;;;;;;15.05;4.07;;;7.30;99.90;;;;;;5062450;28;20040;-89
2021/12/19 12:43:54;;;;;;;10.00;3.80;;;7.40;99.90;;;;;;5054911;28;20521;-88
2021/12/19 12:46:22;;;;;;;16.83;3.72;;;7.30;99.90;;;;;;5062451;28;20064;-89
2021/12/19 12:48:57;;;;;;;16.05;4.00;;;7.30;99.90;;;;;;5069824;28;20565;-87
2021/12/19 12:51:28;;;;;;;16.13;3.35;;;7.30;99.90;;;;;;5062747;28;20093;-87
2021/12/19 12:54:03;;;;;;;16.23;4.35;;;7.20;99.90;;;;;;5077549;28;20447;-87
2021/12/19 12:56:35;;;;;;;14.32;3.22;;;7.30;99.90;;;;;;5061539;28;20753;-86
2021/12/19 12:59:02;;;;;;;14.73;3.47;;;7.30;99.90;;;;;;5078767;28;20496;-86
2021/12/19 13:01:36;;;;;;;15.73;3.13;;;7.30;99.90;;;;;;5063206;28;20059;-86
2021/12/19 13:04:13;;;;;;;15.00;3.42;;;7.20;99.90;;;;;;5056763;28;20036;-87
2021/12/19 13:07:00;;;;;;;14.77;3.53;;;7.20;99.90;;;;;;5073417;28;20070;-87
2021/12/19 13:09:41;;;;;;;13.77;3.92;;;7.30;99.90;;;;;;5081030;28;20036;-86
2021/12/19 13:12:15;;;;;;;17.33;3.78;;;7.30;99.90;;;;;;5057842;28;20605;-87
2021/12/19 13:14:48;;;;;;;17.30;4.00;;;7.30;99.90;;;;;;5073415;28;20369;-87
2021/12/19 13:17:33;;;;;;;13.55;3.42;;;7.20;99.90;;;;;;5067905;28;20043;-87
2021/12/19 13:20:15;;;;;;;22.10;4.93;;;7.30;99.90;;;;;;5062214;28;20755;-86
2021/12/19 13:22:46;;;;;;;21.50;3.70;;;7.30;99.90;;;;;;5061470;28;20036;-86
2021/12/19 13:25:22;;;;;;;16.90;3.70;;;7.30;99.90;;;;;;5081183;28;20509;-87
2021/12/19 13:27:56;;;;;;;24.65;3.97;;;7.20;99.90;;;;;;5069680;28;20036;-86
2021/12/19 13:30:27;;;;;;;15.85;3.75;;;7.30;99.90;;;;;;5069276;28;20084;-86
2021/12/19 13:32:56;;;;;;;17.77;4.50;;;7.30;99.90;;;;;;5058851;28;20040;-87
2021/12/19 13:35:26;;;;;;;20.27;3.95;;;7.30;99.90;;;;;;5085827;28;20123;-86
2021/12/19 13:38:02;;;;;;;15.38;3.45;;;7.20;99.90;;;;;;5063481;28;20476;-87
2021/12/19 13:40:31;;;;;;;18.50;3.55;;;7.20;99.90;;;;;;5062019;28;20044;-87
2021/12/19 13:42:59;;;;;;;15.27;3.70;;;7.30;99.90;;;;;;5052983;28;20050;-86
2021/12/19 13:45:35;;;;;;;18.92;3.47;;;7.20;99.90;;;;;;5066383;28;20040;-87
2021/12/19 13:48:09;;;;;;;16.15;3.95;;;7.20;99.90;;;;;;5063776;28;20131;-86
2021/12/19 13:51:00;;;;;;;10.48;3.45;;;7.20;99.90;;;;;;5074373;28;20044;-86
2021/12/19 13:53:29;;;;;;;18.10;3.72;;;7.20;99.90;;;;;;5055723;28;20052;-87
2021/12/19 13:56:02;;;;;;;18.65;3.88;;;7.20;99.90;;;;;;5053591;28;20040;-87
2021/12/19 13:58:31;;;;;;;25.95;3.97;;;7.30;99.90;;;;;;5073713;28;20082;-87
2021/12/19 14:00:58;;;;;;;15.57;3.38;;;7.30;99.90;;;;;;5088438;28;20376;-86
2021/12/19 14:03:40;;;;;;;16.15;4.22;;;7.30;99.90;;;;;;5054314;28;20051;-86
2021/12/19 14:06:07;;;;;;;16.00;4.63;;;7.30;99.90;;;;;;5088924;28;20725;-87
2021/12/19 14:08:35;;;;;;;11.85;3.97;;;7.30;99.90;;;;;;5041280;28;20050;-86